Données éditées le 25/04/2019 à 00:16:13Z

METAR LFBC (Cazaux) :

LFBC 250000Z AUTO 28009KT 240V320 CAVOK 13/08 Q1000

METAR LFBD (Bordeaux Merignac) :

LFBD 250000Z AUTO 18012KT 9999 FEW023 BKN150 BKN180 12/10 Q1000 TEMPO 4000 -RA